This is the latest recevied weather packets stored in our database for station/object PU2MUS-13. If no packets are shown the sender has not sent any weather packets the latest 10 day(s).
| Time | Temp. | Humidity | Pressure | Rain* | Wind** | Luminosity | Snow |
|---|---|---|---|---|---|---|---|
| 1788096604 | 70° F | 100% | 762 mmHg | 0 in | - | - | - |
| 1788026404 | 88° F | 62% | 755.4 mmHg | 0 in | - | - | - |
| 1788024604 | 88° F | 62% | 755.4 mmHg | 0 in | - | - | - |
| 1788022805 | 90° F | 52% | 755.4 mmHg | 0 in | - | - | - |
| 1788021004 | 90° F | 52% | 755.4 mmHg | 0 in | - | - | - |
| 1788019204 | 93° F | 41% | 756.1 mmHg | 0 in | - | - | - |
| 1788017404 | 93° F | 41% | 756.1 mmHg | 0 in | - | - | - |
| 1788015604 | 90° F | 46% | 756.9 mmHg | 0 in | - | - | - |
| 1788013804 | 90° F | 46% | 756.9 mmHg | 0 in | - | - | - |
| 1788012004 | 86° F | 51% | 757.7 mmHg | 0 in | - | - | - |
| 1788010204 | 86° F | 51% | 757.7 mmHg | 0 in | - | - | - |
| 1788008404 | 82° F | 61% | 756.9 mmHg | 0 in | - | - | - |
| 1788006604 | 82° F | 61% | 756.9 mmHg | 0 in | - | - | - |
| 1788004803 | 79° F | 65% | 756.1 mmHg | 0 in | - | - | - |
| 1788003004 | 79° F | 65% | 756.1 mmHg | 0 in | - | - | - |
| 1788001204 | 79° F | 69% | 755.4 mmHg | 0 in | - | - | - |
| 1787961604 | 79° F | 69% | 755.4 mmHg | 0 in | - | - | - |
| 1787959804 | 79° F | 69% | 755.4 mmHg | 0 in | - | - | - |
| 1787958004 | 79° F | 69% | 755.4 mmHg | 0 in | - | - | - |
| 1787956205 | 79° F | 69% | 755.4 mmHg | 0 in | - | - | - |
| 1787954404 | 79° F | 69% | 755.4 mmHg | 0 in | - | - | - |
| 1787952604 | 79° F | 65% | 759.7 mmHg | 0 in | - | - | - |
| 1787846404 | 79° F | 65% | 760.5 mmHg | 0 in | - | - | - |
| 1787844604 | 79° F | 65% | 760.5 mmHg | 0 in | - | - | - |
| 1787842804 | 77° F | 69% | 761.2 mmHg | 0 in | - | - | - |
* Rain latest hour (hover to see other rain measurements)
** Current wind speed in m/s (hover to see current wind gust speed)